Time;durP1;ratioP1;P1;durP2;ratioP2;P2;SDS_P1;SDS_P2;PMS_P1;PMS_P2;Temp;Humidity;BMP_temperature;BMP_pressure;BME280_temperature;BME280_humidity;BME280_pressure;Samples;Min_cycle;Max_cycle;Signal;HPM_P1;HPM_P2
2022/12/02 00:02:04;;;;;;;3.95;3.65;;;17.00;64.30;;;;;;4991047;28;20418;-21
2022/12/02 00:04:30;;;;;;;4.40;4.10;;;16.90;64.60;;;;;;4984158;28;20051;-19
2022/12/02 00:06:56;;;;;;;3.88;3.58;;;17.00;64.60;;;;;;4988063;28;20034;-20
2022/12/02 00:09:27;;;;;;;3.75;3.45;;;16.90;64.60;;;;;;4971148;28;20065;-19
2022/12/02 00:11:53;;;;;;;3.80;3.50;;;16.90;64.70;;;;;;4989556;28;20149;-21
2022/12/02 00:14:23;;;;;;;3.42;3.22;;;16.80;64.90;;;;;;4988364;28;20136;-20
2022/12/02 00:16:49;;;;;;;4.25;3.95;;;16.80;64.70;;;;;;4989567;28;20511;-19
2022/12/02 00:19:14;;;;;;;3.75;3.45;;;16.90;64.60;;;;;;4995819;28;20045;-19
2022/12/02 00:21:40;;;;;;;3.72;3.53;;;16.90;64.60;;;;;;4989212;28;20046;-20
2022/12/02 00:24:06;;;;;;;3.97;3.67;;;16.90;64.30;;;;;;4989262;28;20589;-20
2022/12/02 00:26:31;;;;;;;3.72;3.42;;;16.80;64.50;;;;;;4988859;28;20049;-20
2022/12/02 00:28:57;;;;;;;3.80;3.50;;;16.90;64.70;;;;;;4988638;28;20042;-18
2022/12/02 00:31:22;;;;;;;3.70;3.40;;;16.80;64.80;;;;;;4989545;28;20046;-19
2022/12/02 00:33:48;;;;;;;3.60;3.40;;;16.80;64.90;;;;;;4988271;28;20077;-20
2022/12/02 00:36:14;;;;;;;3.65;3.35;;;16.70;65.00;;;;;;4988242;28;20499;-26
2022/12/02 00:38:39;;;;;;;3.35;3.15;;;16.80;65.00;;;;;;4985909;28;20061;-19
2022/12/02 00:41:05;;;;;;;3.88;3.58;;;16.80;64.80;;;;;;4985842;28;20062;-20
2022/12/02 00:46:33;;;;;;;3.90;3.60;;;16.70;64.80;;;;;;4988774;28;20057;-19
2022/12/02 00:49:17;;;;;;;3.15;2.95;;;16.70;65.60;;;;;;4988493;28;20039;-20
2022/12/02 00:51:43;;;;;;;3.33;3.13;;;16.80;64.60;;;;;;4988139;28;20054;-19
2022/12/02 00:54:10;;;;;;;3.28;3.08;;;16.90;64.40;;;;;;4988216;28;20054;-19
2022/12/02 00:56:35;;;;;;;3.10;2.90;;;16.80;64.40;;;;;;4987936;28;20046;-21
2022/12/02 00:59:01;;;;;;;3.30;3.08;;;16.80;64.60;;;;;;4987769;28;20042;-19
2022/12/02 01:01:27;;;;;;;3.17;2.97;;;16.70;64.60;;;;;;4988962;28;20117;-19
2022/12/02 01:03:53;;;;;;;3.35;3.15;;;16.70;64.60;;;;;;4986894;28;20052;-19
2022/12/02 01:06:18;;;;;;;3.65;3.45;;;16.70;64.60;;;;;;4987805;28;22611;-20
2022/12/02 01:08:44;;;;;;;3.45;3.25;;;16.80;64.70;;;;;;4984676;28;20113;-20
2022/12/02 01:11:09;;;;;;;3.85;3.60;;;16.70;64.40;;;;;;4983226;28;20129;-20
2022/12/02 01:13:35;;;;;;;3.38;3.17;;;16.70;64.70;;;;;;4983483;28;20165;-19
2022/12/02 01:16:01;;;;;;;3.60;3.40;;;16.70;64.70;;;;;;4983374;28;20034;-27
2022/12/02 01:18:26;;;;;;;3.40;3.20;;;16.70;64.70;;;;;;4985797;28;20051;-20
2022/12/02 01:20:52;;;;;;;3.70;3.40;;;16.70;64.60;;;;;;4986167;28;20490;-19
2022/12/02 01:23:18;;;;;;;3.55;3.25;;;16.70;64.40;;;;;;4983891;28;20046;-20
2022/12/02 01:25:43;;;;;;;3.92;3.63;;;16.70;64.40;;;;;;4986183;28;20992;-19
2022/12/02 01:28:09;;;;;;;3.40;3.20;;;16.70;64.60;;;;;;4984665;28;20146;-20
2022/12/02 01:30:34;;;;;;;3.55;3.25;;;16.70;64.70;;;;;;4985195;28;20060;-19
2022/12/02 01:33:00;;;;;;;3.30;3.10;;;16.70;64.40;;;;;;4985621;28;20508;-20
2022/12/02 01:35:26;;;;;;;3.50;3.30;;;16.70;64.50;;;;;;4983718;28;20496;-19
2022/12/02 01:37:51;;;;;;;3.50;3.20;;;16.70;64.50;;;;;;4984522;28;20133;-19
2022/12/02 01:40:17;;;;;;;3.80;3.50;;;16.60;64.50;;;;;;4983896;28;20534;-19
2022/12/02 01:42:43;;;;;;;3.50;3.30;;;16.70;64.30;;;;;;4984029;28;20092;-21
2022/12/02 01:45:09;;;;;;;3.15;2.95;;;16.70;64.30;;;;;;4984779;28;20451;-19
2022/12/02 01:47:35;;;;;;;3.90;3.60;;;16.70;64.20;;;;;;4984512;28;20052;-19
2022/12/02 01:50:00;;;;;;;3.00;2.80;;;16.70;64.40;;;;;;4983277;28;20050;-20
2022/12/02 01:52:26;;;;;;;2.95;2.75;;;16.70;64.10;;;;;;4983982;28;20038;-20
2022/12/02 01:54:52;;;;;;;3.33;2.92;;;16.70;64.30;;;;;;4984107;28;20590;-19
2022/12/02 01:57:19;;;;;;;3.20;3.00;;;16.70;64.10;;;;;;4983361;28;20046;-20
2022/12/02 01:59:45;;;;;;;3.20;3.00;;;16.70;64.10;;;;;;4983667;28;20077;-19
2022/12/02 02:02:37;;;;;;;3.50;3.30;;;16.70;64.00;;;;;;4984910;28;20042;-19
2022/12/02 02:05:23;;;;;;;3.40;3.20;;;16.70;63.90;;;;;;4983378;28;20042;-18
2022/12/02 02:07:51;;;;;;;3.22;3.03;;;16.70;64.00;;;;;;4982199;28;20050;-19
2022/12/02 02:10:18;;;;;;;3.10;2.90;;;16.70;64.70;;;;;;4982910;28;20049;-19
2022/12/02 02:12:47;;;;;;;3.33;3.13;;;16.60;65.00;;;;;;4982419;28;20058;-19
2022/12/02 02:15:13;;;;;;;3.40;3.20;;;16.60;65.10;;;;;;4982671;28;20074;-20
2022/12/02 02:17:39;;;;;;;3.42;3.22;;;16.60;65.10;;;;;;4983688;28;20522;-19
2022/12/02 02:20:06;;;;;;;3.13;2.92;;;16.60;64.80;;;;;;4984745;28;20035;-19
2022/12/02 02:22:56;;;;;;;3.00;2.80;;;16.60;64.60;;;;;;4982924;28;20412;-20
2022/12/02 02:25:21;;;;;;;3.08;2.88;;;16.60;64.30;;;;;;4983854;28;20046;-26
2022/12/02 02:27:58;;;;;;;3.15;2.95;;;16.60;64.20;;;;;;4984623;28;20049;-20
2022/12/02 02:30:24;;;;;;;3.30;3.10;;;16.70;64.30;;;;;;5009459;28;21100;-20
2022/12/02 02:32:49;;;;;;;3.17;2.97;;;16.70;64.20;;;;;;4983085;28;20046;-19
2022/12/02 02:35:15;;;;;;;2.90;2.72;;;16.60;64.20;;;;;;4983796;28;20046;-20
2022/12/02 02:37:41;;;;;;;3.15;2.95;;;16.60;64.00;;;;;;4982624;28;20053;-19
2022/12/02 02:40:07;;;;;;;2.75;2.55;;;16.60;64.00;;;;;;4983017;28;21239;-20
2022/12/02 02:42:33;;;;;;;2.72;2.53;;;16.60;64.00;;;;;;4983537;28;20054;-21
2022/12/02 02:44:59;;;;;;;3.10;2.90;;;16.60;63.90;;;;;;4984108;28;20053;-19
2022/12/02 02:47:25;;;;;;;3.20;3.00;;;16.60;63.80;;;;;;4982905;28;20468;-19
2022/12/02 02:49:50;;;;;;;2.88;2.67;;;16.60;63.80;;;;;;4983424;28;20618;-19
2022/12/02 02:52:16;;;;;;;2.90;2.70;;;16.70;63.70;;;;;;4985709;28;20046;-24
2022/12/02 02:54:41;;;;;;;3.00;2.80;;;16.70;63.80;;;;;;4986553;28;20054;-19
2022/12/02 02:57:08;;;;;;;3.08;2.88;;;16.60;63.80;;;;;;4986812;28;20105;-18
2022/12/02 02:59:33;;;;;;;2.75;2.63;;;16.60;63.80;;;;;;4986921;28;20027;-20
2022/12/02 03:01:59;;;;;;;2.53;2.38;;;16.60;63.70;;;;;;4990824;28;20511;-19
2022/12/02 03:04:24;;;;;;;2.97;2.78;;;16.60;63.60;;;;;;4990331;28;20039;-19
2022/12/02 03:06:50;;;;;;;2.80;2.60;;;16.60;63.80;;;;;;4973706;28;20039;-20
2022/12/02 03:09:17;;;;;;;2.90;2.78;;;16.60;63.70;;;;;;4990113;28;20049;-19
2022/12/02 03:11:42;;;;;;;2.72;2.58;;;16.60;64.50;;;;;;4989178;28;20137;-19
2022/12/02 03:14:08;;;;;;;2.60;2.47;;;16.60;63.70;;;;;;4993754;28;20124;-19
2022/12/02 03:16:34;;;;;;;3.10;2.90;;;16.50;63.60;;;;;;4989767;28;20504;-20
2022/12/02 03:18:59;;;;;;;3.17;2.97;;;16.60;63.90;;;;;;4990958;28;20101;-20
2022/12/02 03:21:25;;;;;;;2.63;2.53;;;16.50;63.80;;;;;;4988172;28;20047;-19
2022/12/02 03:23:51;;;;;;;2.70;2.60;;;16.50;63.70;;;;;;4991267;28;20033;-19
2022/12/02 03:26:17;;;;;;;2.78;2.65;;;16.60;63.50;;;;;;4988739;28;20108;-20
2022/12/02 03:28:42;;;;;;;2.50;2.40;;;16.60;63.60;;;;;;4990636;28;20636;-20
2022/12/02 03:31:08;;;;;;;2.45;2.35;;;16.50;63.60;;;;;;5019969;28;20070;-19
2022/12/02 03:33:34;;;;;;;2.95;2.75;;;16.50;63.60;;;;;;4997524;28;20051;-19
2022/12/02 03:35:59;;;;;;;2.80;2.60;;;16.60;63.50;;;;;;4988912;28;20491;-19
2022/12/02 03:38:25;;;;;;;2.53;2.42;;;16.60;64.00;;;;;;4991683;28;20058;-24
2022/12/02 03:40:51;;;;;;;2.60;2.40;;;16.50;63.50;;;;;;4988598;28;20427;-20
2022/12/02 03:43:17;;;;;;;3.03;2.85;;;16.50;63.40;;;;;;4992052;28;20146;-21
2022/12/02 03:45:42;;;;;;;2.60;2.40;;;16.60;63.70;;;;;;5016694;28;20034;-20
2022/12/02 03:48:08;;;;;;;2.92;2.72;;;16.60;63.40;;;;;;4972431;28;20048;-19
2022/12/02 03:50:33;;;;;;;2.50;2.40;;;16.50;63.50;;;;;;4990213;28;20495;-19
2022/12/02 03:52:59;;;;;;;2.30;2.20;;;16.50;63.50;;;;;;4989912;28;20121;-19
2022/12/02 03:55:24;;;;;;;2.83;2.72;;;16.50;63.50;;;;;;4989588;28;20173;-19
2022/12/02 03:57:50;;;;;;;2.60;2.50;;;16.50;63.50;;;;;;4988970;28;20109;-19
2022/12/02 04:00:16;;;;;;;2.55;2.38;;;16.60;63.40;;;;;;4987114;28;20089;-19
2022/12/02 04:02:41;;;;;;;2.40;2.30;;;16.60;63.10;;;;;;5013913;28;20039;-19
2022/12/02 04:05:07;;;;;;;2.42;2.33;;;16.60;63.40;;;;;;4989235;28;20045;-19
2022/12/02 04:07:32;;;;;;;2.42;2.33;;;16.50;63.20;;;;;;4989879;28;20050;-19
2022/12/02 04:09:58;;;;;;;2.33;2.22;;;16.50;63.30;;;;;;4989260;28;20050;-23
2022/12/02 04:12:24;;;;;;;2.40;2.30;;;16.50;63.10;;;;;;4990364;28;20042;-20
2022/12/02 04:14:49;;;;;;;2.10;2.00;;;16.50;63.30;;;;;;4993077;28;20043;-19
2022/12/02 04:17:15;;;;;;;2.30;2.17;;;16.50;63.20;;;;;;4990402;28;20500;-19
2022/12/02 04:19:40;;;;;;;2.20;2.10;;;16.50;63.30;;;;;;4989725;28;20122;-19
2022/12/02 04:22:06;;;;;;;2.25;2.15;;;16.50;63.20;;;;;;5005903;28;20038;-20
2022/12/02 04:24:31;;;;;;;2.63;2.53;;;16.50;63.20;;;;;;4988431;28;20046;-19
2022/12/02 04:26:57;;;;;;;2.20;2.10;;;16.50;64.00;;;;;;4989868;28;20699;-19
2022/12/02 04:29:22;;;;;;;2.35;2.25;;;16.50;63.20;;;;;;4988017;28;20132;-19
2022/12/02 04:31:48;;;;;;;2.25;2.15;;;16.40;63.20;;;;;;4991849;28;20064;-19
2022/12/02 04:34:13;;;;;;;2.35;2.25;;;16.50;63.10;;;;;;4987126;28;20047;-19
2022/12/02 04:36:39;;;;;;;2.30;2.20;;;16.50;63.20;;;;;;4989788;28;20050;-19
2022/12/02 04:39:05;;;;;;;2.08;1.98;;;16.50;63.10;;;;;;4989650;28;20038;-19
2022/12/02 04:41:30;;;;;;;2.30;2.20;;;16.50;63.10;;;;;;4990002;28;20057;-19
2022/12/02 04:43:56;;;;;;;2.45;2.25;;;16.40;63.10;;;;;;4990295;28;20043;-19
2022/12/02 04:46:21;;;;;;;2.50;2.40;;;16.50;63.10;;;;;;4990461;28;20050;-19
2022/12/02 04:48:47;;;;;;;2.53;2.42;;;16.50;62.90;;;;;;4991782;28;20034;-21
2022/12/02 04:51:12;;;;;;;2.33;2.22;;;16.50;63.10;;;;;;4988396;28;20144;-18
2022/12/02 04:53:38;;;;;;;2.25;2.15;;;16.40;63.30;;;;;;4989178;28;20046;-19
2022/12/02 04:56:04;;;;;;;2.38;2.28;;;16.40;63.20;;;;;;4989876;28;20518;-19
2022/12/02 04:58:29;;;;;;;2.33;2.20;;;16.40;63.00;;;;;;4987341;28;20034;-19
2022/12/02 05:00:55;;;;;;;2.50;2.40;;;16.40;63.80;;;;;;4988318;28;20077;-19
2022/12/02 05:03:20;;;;;;;2.30;2.20;;;16.40;63.00;;;;;;4987674;28;20038;-19
2022/12/02 05:05:46;;;;;;;2.25;2.15;;;16.40;63.00;;;;;;4988950;28;20101;-19
2022/12/02 05:08:12;;;;;;;2.17;2.08;;;16.40;63.00;;;;;;4993820;28;20041;-19
2022/12/02 05:10:37;;;;;;;2.58;2.47;;;16.40;63.00;;;;;;4987256;28;20050;-19
2022/12/02 05:13:03;;;;;;;2.30;2.20;;;16.40;62.90;;;;;;4988048;28;20039;-19
2022/12/02 05:15:28;;;;;;;2.28;2.17;;;16.40;62.90;;;;;;4988226;28;20050;-18
2022/12/02 05:17:54;;;;;;;2.22;2.13;;;16.40;62.90;;;;;;4988842;28;20042;-19
2022/12/02 05:20:19;;;;;;;2.08;1.98;;;16.40;62.90;;;;;;4986054;28;20120;-19
2022/12/02 05:22:45;;;;;;;2.28;2.17;;;16.40;62.90;;;;;;4987990;28;20046;-19
2022/12/02 05:25:11;;;;;;;2.28;2.17;;;16.40;63.00;;;;;;4991308;28;20042;-20
2022/12/02 05:27:36;;;;;;;2.58;2.45;;;16.40;62.90;;;;;;4988442;28;20121;-19
2022/12/02 05:30:05;;;;;;;2.10;2.00;;;16.40;63.00;;;;;;4988985;28;20074;-18
2022/12/02 05:32:31;;;;;;;2.42;2.33;;;16.30;62.80;;;;;;4986834;28;20137;-19
2022/12/02 05:34:57;;;;;;;2.13;2.03;;;16.40;62.80;;;;;;4987152;28;20141;-20
2022/12/02 05:37:23;;;;;;;2.05;1.85;;;16.30;62.90;;;;;;4988345;28;20046;-21
2022/12/02 05:39:48;;;;;;;2.20;2.10;;;16.30;62.80;;;;;;4988326;28;20125;-19
2022/12/02 05:42:14;;;;;;;2.20;2.10;;;16.30;62.80;;;;;;4990273;28;20121;-20
2022/12/02 05:44:41;;;;;;;2.20;2.10;;;16.30;62.90;;;;;;4990025;28;20046;-19
2022/12/02 05:47:16;;;;;;;2.60;2.50;;;16.20;63.00;;;;;;4988612;28;20034;-19
2022/12/02 05:49:43;;;;;;;2.22;2.13;;;16.20;63.00;;;;;;4987536;28;20814;-19
2022/12/02 05:52:25;;;;;;;2.00;1.90;;;16.30;62.90;;;;;;4989890;28;20043;-23
2022/12/02 05:54:52;;;;;;;2.38;2.28;;;16.30;62.80;;;;;;4987704;28;20423;-20
2022/12/02 05:57:23;;;;;;;2.00;1.90;;;16.30;62.70;;;;;;4987520;28;20419;-24
2022/12/02 05:59:49;;;;;;;2.40;2.30;;;16.30;62.70;;;;;;4988547;28;20093;-20
2022/12/02 06:02:32;;;;;;;2.50;2.38;;;16.30;62.80;;;;;;4986888;28;20038;-21
2022/12/02 06:04:57;;;;;;;2.10;2.00;;;16.30;62.80;;;;;;4981199;28;20046;-20
2022/12/02 06:07:23;;;;;;;2.50;2.40;;;16.30;62.60;;;;;;4979706;28;20112;-20
2022/12/02 06:09:50;;;;;;;2.10;2.00;;;16.30;62.90;;;;;;4981535;28;20134;-20
2022/12/02 06:12:17;;;;;;;2.25;2.15;;;16.40;63.00;;;;;;4981192;28;20041;-20
2022/12/02 06:14:46;;;;;;;2.65;2.05;;;16.30;63.20;;;;;;4981095;28;20049;-20
2022/12/02 06:17:14;;;;;;;2.22;2.13;;;16.40;63.30;;;;;;4991497;28;20126;-20
2022/12/02 06:19:41;;;;;;;2.00;1.90;;;16.30;63.40;;;;;;4984906;28;22219;-19
2022/12/02 06:22:29;;;;;;;2.10;2.00;;;16.30;63.30;;;;;;4987461;28;20515;-22
2022/12/02 06:24:54;;;;;;;2.03;1.92;;;16.30;63.20;;;;;;4984947;28;20042;-19
2022/12/02 06:27:21;;;;;;;2.15;2.05;;;16.40;63.40;;;;;;4984850;28;20112;-21
2022/12/02 06:29:51;;;;;;;2.10;2.00;;;16.40;63.10;;;;;;4982048;28;20046;-19
2022/12/02 06:32:19;;;;;;;2.00;1.90;;;16.40;63.60;;;;;;4981105;28;20038;-27
2022/12/02 06:34:45;;;;;;;2.85;2.20;;;16.30;64.00;;;;;;4983180;28;20579;-20
2022/12/02 06:37:21;;;;;;;1.90;1.77;;;16.30;63.80;;;;;;4969504;28;20467;-19
2022/12/02 06:40:10;;;;;;;2.15;2.05;;;16.30;63.60;;;;;;4989573;28;20042;-20
2022/12/02 06:42:37;;;;;;;2.17;2.08;;;16.30;63.80;;;;;;4989632;28;20651;-20
2022/12/02 06:45:13;;;;;;;2.28;2.17;;;16.20;63.60;;;;;;4971357;28;20050;-19
2022/12/02 06:47:41;;;;;;;3.92;1.90;;;16.20;63.80;;;;;;4987135;28;20054;-20
2022/12/02 06:50:07;;;;;;;1.90;1.80;;;16.40;63.70;;;;;;4986971;28;20047;-19
2022/12/02 06:52:37;;;;;;;2.15;1.92;;;16.40;63.20;;;;;;4990460;28;20042;-19
2022/12/02 06:55:08;;;;;;;2.25;2.10;;;16.40;63.10;;;;;;4988954;28;20054;-18
2022/12/02 06:57:34;;;;;;;1.88;1.77;;;16.30;63.20;;;;;;4995857;28;20053;-18
2022/12/02 06:59:59;;;;;;;2.60;1.75;;;16.30;63.30;;;;;;4990702;28;20046;-19
2022/12/02 07:02:29;;;;;;;2.30;2.10;;;16.40;63.40;;;;;;4988866;28;20082;-18
2022/12/02 07:04:55;;;;;;;2.00;1.90;;;16.30;63.40;;;;;;4991375;28;20053;-19
2022/12/02 07:07:28;;;;;;;1.77;1.67;;;16.30;64.30;;;;;;4988131;28;20046;-18
2022/12/02 07:10:06;;;;;;;1.80;1.70;;;16.30;63.20;;;;;;4990937;28;20054;-18
2022/12/02 07:12:37;;;;;;;2.03;1.92;;;16.40;63.20;;;;;;4985260;28;20043;-18
2022/12/02 07:15:08;;;;;;;1.88;1.77;;;16.40;63.10;;;;;;4986076;28;20500;-18
2022/12/02 07:17:41;;;;;;;2.22;2.13;;;16.30;63.30;;;;;;4987389;28;20333;-19
2022/12/02 07:20:10;;;;;;;1.80;1.70;;;16.30;63.40;;;;;;4986853;28;20042;-18
2022/12/02 07:22:43;;;;;;;1.88;1.77;;;16.30;63.50;;;;;;4985284;28;20046;-19
2022/12/02 07:25:08;;;;;;;2.00;1.90;;;16.30;63.10;;;;;;4988100;28;20842;-19
2022/12/02 07:27:38;;;;;;;2.17;2.08;;;16.20;63.50;;;;;;4990719;28;20034;-18
2022/12/02 07:30:19;;;;;;;2.03;1.92;;;16.20;63.50;;;;;;4990008;28;20129;-22
2022/12/02 07:32:44;;;;;;;2.95;2.00;;;16.20;63.50;;;;;;4988280;28;20069;-19
2022/12/02 07:35:10;;;;;;;2.13;1.95;;;16.10;63.70;;;;;;4991365;28;20436;-18
2022/12/02 07:37:35;;;;;;;2.08;1.95;;;16.20;63.80;;;;;;4989237;28;20048;-19
2022/12/02 07:40:02;;;;;;;2.05;1.95;;;16.20;63.60;;;;;;4989142;28;20062;-20
2022/12/02 07:42:27;;;;;;;1.88;1.77;;;16.20;63.80;;;;;;4989215;28;20124;-18
2022/12/02 07:44:53;;;;;;;2.22;2.13;;;16.20;63.70;;;;;;4987997;28;20528;-18
2022/12/02 07:47:18;;;;;;;2.08;1.98;;;16.20;63.90;;;;;;4990078;28;20133;-18
2022/12/02 07:49:44;;;;;;;2.13;2.03;;;16.10;64.00;;;;;;4989393;28;20046;-18
2022/12/02 07:52:09;;;;;;;2.38;2.17;;;16.10;63.80;;;;;;4982750;28;20089;-18
2022/12/02 07:54:35;;;;;;;2.00;1.90;;;16.10;64.20;;;;;;4985305;28;20052;-18
2022/12/02 07:57:00;;;;;;;2.50;2.40;;;16.10;64.30;;;;;;4982975;28;20030;-18
2022/12/02 07:59:26;;;;;;;3.00;2.30;;;16.10;64.80;;;;;;4990377;28;20120;-18
2022/12/02 08:01:51;;;;;;;2.58;2.38;;;16.20;64.80;;;;;;4988324;28;20042;-26
2022/12/02 08:04:17;;;;;;;2.50;2.30;;;16.30;64.30;;;;;;4988704;28;20047;-19
2022/12/02 08:06:43;;;;;;;2.45;2.30;;;16.30;64.40;;;;;;4987075;28;20141;-18
2022/12/02 08:09:08;;;;;;;3.65;1.95;;;16.30;65.20;;;;;;4989161;28;20488;-18
2022/12/02 08:11:34;;;;;;;2.67;2.50;;;16.30;65.20;;;;;;4990128;28;20034;-18
2022/12/02 08:14:00;;;;;;;7.38;2.22;;;16.40;64.60;;;;;;4987574;28;20042;-18
2022/12/02 08:16:25;;;;;;;2.17;2.08;;;16.40;64.60;;;;;;4991747;28;20039;-18
2022/12/02 08:18:51;;;;;;;1.90;1.80;;;16.50;65.20;;;;;;4986821;28;20061;-18
2022/12/02 08:21:16;;;;;;;1.95;1.85;;;16.30;65.60;;;;;;4988187;28;20054;-18
2022/12/02 08:23:42;;;;;;;1.98;1.88;;;16.40;65.80;;;;;;4989323;28;20056;-18
2022/12/02 08:26:07;;;;;;;1.70;1.60;;;16.30;66.30;;;;;;4989021;28;20092;-18
2022/12/02 08:28:33;;;;;;;1.55;1.45;;;16.20;66.40;;;;;;4988167;28;20038;-18
2022/12/02 08:30:59;;;;;;;2.75;2.22;;;16.30;65.90;;;;;;4990307;28;20078;-18
2022/12/02 08:33:24;;;;;;;1.90;1.80;;;16.20;66.10;;;;;;4987547;28;20046;-16
2022/12/02 08:35:50;;;;;;;2.17;2.08;;;16.30;65.90;;;;;;4988067;28;20138;-19
2022/12/02 08:38:15;;;;;;;2.08;1.90;;;16.40;65.80;;;;;;4988461;28;20038;-18
2022/12/02 08:40:41;;;;;;;3.10;2.30;;;16.30;65.50;;;;;;4987643;28;20125;-18
2022/12/02 08:43:06;;;;;;;1.85;1.75;;;16.40;65.10;;;;;;4988957;28;20046;-19
2022/12/02 08:45:32;;;;;;;2.42;2.00;;;16.50;64.80;;;;;;4985898;28;20639;-18
2022/12/02 08:47:57;;;;;;;2.70;2.25;;;16.40;65.20;;;;;;4991048;28;20053;-25
2022/12/02 08:50:24;;;;;;;2.30;2.10;;;16.40;64.90;;;;;;4988290;28;20109;-18
2022/12/02 08:52:49;;;;;;;2.80;2.60;;;16.40;65.00;;;;;;4986527;28;20060;-19
2022/12/02 08:55:15;;;;;;;2.35;2.20;;;16.30;65.00;;;;;;4984626;28;20134;-18
2022/12/02 08:57:40;;;;;;;2.50;2.30;;;16.30;65.50;;;;;;4985857;28;20676;-18
2022/12/02 09:00:07;;;;;;;2.35;2.20;;;16.50;64.40;;;;;;4986305;28;20133;-18
2022/12/02 09:02:33;;;;;;;2.40;2.20;;;16.40;64.30;;;;;;4986062;28;20038;-19
2022/12/02 09:04:58;;;;;;;2.22;2.13;;;16.60;63.90;;;;;;4988366;28;20053;-19
2022/12/02 09:07:24;;;;;;;3.28;2.10;;;16.60;63.80;;;;;;4986787;28;20030;-18
2022/12/02 09:09:49;;;;;;;2.00;1.90;;;16.60;63.80;;;;;;4987746;28;20058;-19
2022/12/02 09:12:15;;;;;;;3.10;2.00;;;16.60;63.60;;;;;;4987963;28;20049;-18
2022/12/02 09:14:40;;;;;;;1.88;1.77;;;16.60;63.80;;;;;;4987820;28;20046;-18
2022/12/02 09:17:06;;;;;;;2.00;1.90;;;16.50;63.90;;;;;;4988612;28;20050;-18
2022/12/02 09:19:32;;;;;;;1.95;1.85;;;16.50;64.00;;;;;;4988309;28;20054;-18
2022/12/02 09:21:57;;;;;;;3.47;1.60;;;16.60;63.70;;;;;;4987436;28;20058;-18
2022/12/02 09:24:23;;;;;;;2.65;1.98;;;16.60;63.70;;;;;;5015709;28;20073;-19
2022/12/02 09:26:48;;;;;;;2.00;1.90;;;16.50;63.90;;;;;;4986690;28;20046;-18
2022/12/02 09:29:14;;;;;;;4.63;1.80;;;16.50;64.00;;;;;;4988434;28;20046;-18
2022/12/02 09:31:39;;;;;;;2.10;2.00;;;16.50;64.90;;;;;;4979754;28;20604;-19
2022/12/02 09:34:05;;;;;;;1.90;1.80;;;16.60;64.20;;;;;;4987000;28;20053;-18
2022/12/02 09:36:30;;;;;;;2.15;2.00;;;16.60;64.70;;;;;;4985530;28;20039;-18
2022/12/02 09:38:56;;;;;;;2.10;2.00;;;16.60;63.80;;;;;;4986452;28;20046;-19
2022/12/02 09:41:21;;;;;;;1.98;1.88;;;16.70;63.40;;;;;;4988617;28;20116;-18
2022/12/02 09:43:47;;;;;;;2.13;2.03;;;16.70;63.50;;;;;;4989273;28;20113;-19
2022/12/02 09:46:13;;;;;;;2.17;2.08;;;16.70;64.10;;;;;;4985733;28;20050;-18
2022/12/02 09:48:38;;;;;;;1.92;1.83;;;16.80;63.30;;;;;;4981782;28;20043;-18
2022/12/02 09:51:04;;;;;;;2.25;2.15;;;16.80;63.50;;;;;;4983873;28;20050;-19
2022/12/02 09:53:33;;;;;;;3.00;2.25;;;16.90;63.20;;;;;;4989687;28;20046;-18
2022/12/02 09:55:59;;;;;;;1.98;1.88;;;16.80;63.20;;;;;;4986882;28;20050;-18
2022/12/02 09:58:25;;;;;;;2.22;2.03;;;16.80;63.40;;;;;;4986340;28;20034;-19
2022/12/02 10:00:51;;;;;;;1.92;1.83;;;16.80;63.60;;;;;;4983839;28;20054;-18
2022/12/02 10:03:16;;;;;;;2.40;2.25;;;16.90;63.50;;;;;;4986713;28;20047;-18
2022/12/02 10:05:42;;;;;;;1.98;1.88;;;16.80;63.70;;;;;;4983508;28;20104;-19
2022/12/02 10:08:12;;;;;;;2.17;1.90;;;16.80;63.90;;;;;;4984534;28;20042;-18
2022/12/02 10:10:39;;;;;;;3.67;2.45;;;16.80;63.80;;;;;;4998063;28;20129;-18
2022/12/02 10:13:04;;;;;;;2.22;2.03;;;16.80;64.80;;;;;;4984352;28;20566;-18
2022/12/02 10:15:33;;;;;;;2.00;1.90;;;16.80;63.90;;;;;;4980630;28;20192;-18
2022/12/02 10:18:01;;;;;;;2.33;2.22;;;16.90;63.70;;;;;;5010389;28;20585;-19
2022/12/02 10:20:27;;;;;;;2.47;2.28;;;17.00;63.40;;;;;;4990331;28;20121;-19
2022/12/02 10:23:15;;;;;;;2.05;1.95;;;17.00;63.30;;;;;;4985163;28;20145;-18
2022/12/02 10:25:46;;;;;;;2.50;2.40;;;17.00;63.40;;;;;;4985251;28;20046;-19
2022/12/02 10:28:22;;;;;;;2.40;2.30;;;17.00;63.50;;;;;;4986994;28;20052;-18
2022/12/02 10:30:49;;;;;;;2.00;1.90;;;17.00;63.50;;;;;;4985321;28;20062;-18
2022/12/02 10:33:14;;;;;;;2.30;2.20;;;17.00;63.40;;;;;;4982606;28;20518;-19
2022/12/02 10:35:45;;;;;;;2.35;2.15;;;17.00;63.30;;;;;;4984674;28;20050;-18
2022/12/02 10:38:29;;;;;;;1.95;1.85;;;17.00;63.30;;;;;;4985645;28;20061;-19
2022/12/02 10:41:14;;;;;;;2.13;2.00;;;17.00;63.30;;;;;;4983489;28;20038;-18
2022/12/02 10:43:43;;;;;;;2.30;2.20;;;17.00;63.40;;;;;;4984853;28;20421;-18
2022/12/02 10:46:15;;;;;;;2.90;2.70;;;17.00;63.60;;;;;;4983432;28;20041;-18
2022/12/02 10:48:41;;;;;;;2.78;2.63;;;17.00;63.40;;;;;;4985702;28;20192;-18
2022/12/02 10:51:12;;;;;;;3.88;3.60;;;17.00;63.30;;;;;;4985735;28;20125;-18
2022/12/02 10:53:37;;;;;;;3.47;3.28;;;17.00;63.20;;;;;;4983338;28;20454;-18
2022/12/02 10:56:03;;;;;;;3.67;3.42;;;17.00;63.40;;;;;;4987168;28;20042;-18
2022/12/02 10:58:29;;;;;;;3.55;3.28;;;17.10;63.40;;;;;;4968759;28;20518;-18
2022/12/02 11:00:55;;;;;;;3.30;3.10;;;17.10;63.10;;;;;;4986465;28;20101;-18
2022/12/02 11:03:22;;;;;;;3.13;2.92;;;17.00;63.90;;;;;;4980703;28;20439;-18
2022/12/02 11:05:48;;;;;;;3.70;3.40;;;17.00;63.60;;;;;;4984352;28;20058;-19
2022/12/02 11:08:22;;;;;;;3.28;3.08;;;17.00;63.30;;;;;;4984850;28;20058;-18
2022/12/02 11:10:50;;;;;;;3.05;2.85;;;17.00;63.80;;;;;;4977876;28;20444;-19
2022/12/02 11:13:29;;;;;;;3.22;3.03;;;17.10;63.60;;;;;;4986064;28;20027;-19
2022/12/02 11:15:55;;;;;;;2.88;2.67;;;17.00;63.60;;;;;;4986654;28;20042;-18
2022/12/02 11:18:29;;;;;;;2.92;2.72;;;17.00;63.70;;;;;;4985517;28;20035;-18
2022/12/02 11:21:05;;;;;;;3.10;2.80;;;16.90;63.80;;;;;;4985916;28;20043;-18
2022/12/02 11:23:31;;;;;;;2.90;2.70;;;16.90;63.80;;;;;;4989214;28;20046;-19
2022/12/02 11:25:58;;;;;;;2.92;2.72;;;16.90;64.00;;;;;;4989164;28;20471;-19
2022/12/02 11:28:26;;;;;;;3.03;2.83;;;16.80;63.90;;;;;;4988087;28;20423;-27
2022/12/02 11:31:10;;;;;;;3.20;3.00;;;16.80;63.90;;;;;;4989449;28;20042;-18
2022/12/02 11:33:47;;;;;;;2.87;2.50;;;16.80;64.00;;;;;;4984242;28;20042;-17
2022/12/02 11:36:15;;;;;;;3.00;2.80;;;16.80;64.00;;;;;;4988021;28;20285;-19
2022/12/02 11:38:50;;;;;;;3.03;2.83;;;16.80;64.10;;;;;;4987339;28;20042;-18
2022/12/02 11:41:16;;;;;;;2.67;2.47;;;16.80;64.10;;;;;;4988559;28;20054;-18
2022/12/02 11:43:45;;;;;;;2.55;2.45;;;16.80;64.40;;;;;;4987986;28;20125;-18
2022/12/02 11:46:12;;;;;;;3.03;2.83;;;16.80;64.10;;;;;;4988646;28;20149;-18
2022/12/02 11:48:54;;;;;;;3.10;2.90;;;16.80;64.00;;;;;;4986381;28;20050;-18
2022/12/02 11:51:39;;;;;;;2.78;2.60;;;16.80;64.10;;;;;;4988112;28;20050;-18
2022/12/02 11:54:08;;;;;;;2.97;2.78;;;16.80;64.00;;;;;;4986816;28;20072;-19
2022/12/02 11:56:37;;;;;;;2.90;2.70;;;16.80;64.20;;;;;;4987767;28;20070;-18
2022/12/02 11:59:13;;;;;;;2.67;2.45;;;16.70;64.20;;;;;;4978086;28;20073;-20
2022/12/02 12:01:38;;;;;;;2.50;2.35;;;16.70;64.20;;;;;;4984024;28;20049;-17
2022/12/02 12:04:04;;;;;;;3.78;2.63;;;16.70;64.10;;;;;;4988800;28;20754;-18
2022/12/02 12:06:33;;;;;;;2.70;2.50;;;16.70;64.20;;;;;;4983692;28;20055;-19
2022/12/02 12:08:59;;;;;;;2.78;2.58;;;16.70;64.10;;;;;;4987737;28;20145;-18
2022/12/02 12:11:31;;;;;;;3.28;2.50;;;16.70;64.10;;;;;;4986085;28;20122;-18
2022/12/02 12:13:59;;;;;;;2.40;2.30;;;16.70;64.00;;;;;;4986652;28;21055;-18
2022/12/02 12:16:25;;;;;;;2.50;2.40;;;16.70;64.10;;;;;;4988146;28;20034;-22
2022/12/02 12:18:51;;;;;;;2.28;2.17;;;16.70;64.10;;;;;;4987701;28;20641;-22
2022/12/02 12:21:32;;;;;;;2.83;2.63;;;16.70;64.00;;;;;;4988430;28;20503;-18
2022/12/02 12:24:19;;;;;;;2.70;2.50;;;16.70;63.90;;;;;;4988445;28;20134;-18
2022/12/02 12:27:03;;;;;;;2.80;2.60;;;16.70;64.00;;;;;;4982154;28;20050;-18
2022/12/02 12:29:32;;;;;;;2.67;2.47;;;16.70;63.90;;;;;;4981094;28;20069;-18
2022/12/02 12:31:58;;;;;;;2.53;2.33;;;16.70;63.90;;;;;;4980019;28;20050;-19
2022/12/02 12:34:23;;;;;;;2.83;2.63;;;16.70;63.90;;;;;;4979759;28;20101;-18
2022/12/02 12:36:49;;;;;;;2.83;2.60;;;16.80;63.90;;;;;;4977703;28;20046;-19
2022/12/02 12:39:15;;;;;;;2.75;2.55;;;16.90;63.70;;;;;;4992289;28;20109;-25
2022/12/02 12:41:40;;;;;;;2.28;2.17;;;16.80;64.00;;;;;;4987040;28;20574;-18
2022/12/02 12:44:06;;;;;;;2.72;2.53;;;16.70;64.50;;;;;;4980573;28;20058;-19
2022/12/02 12:46:31;;;;;;;2.55;2.42;;;16.70;64.00;;;;;;4984029;28;20065;-19
2022/12/02 12:48:57;;;;;;;2.78;2.58;;;16.80;64.80;;;;;;4993593;28;20475;-34
2022/12/02 12:51:23;;;;;;;2.33;2.22;;;16.80;64.00;;;;;;4988759;28;20178;-39
2022/12/02 12:53:48;;;;;;;3.22;2.70;;;16.70;64.00;;;;;;5012501;28;20034;-34